Погода Миритиницына неделю

Псковская область, Россия

21 - 27 июля
  • 21июля
    Сегодня
    +14°
    +22°
    Облачно с прояснениями
    ВремяПогодаТемператураВлажностьДавлениеВетер, м/сВероятность осадков
    00:00Практически безоблачно+15°C93 %750 мм1.7 м/с3 %
    03:00Ясно и безоблачно+13°C96 %750 мм1.8 м/с2 %
    06:00Практически безоблачно+14°C97 %750 мм1.5 м/с2 %
    09:00Практически безоблачно+19°C84 %751 мм1.4 м/с12 %
    12:00Пасмурно, сплошная облачность+21°C74 %751 мм0.9 м/с44 %
    15:00Облачно с прояснениями+21°C69 %750 мм1.4 м/с46 %
    18:00Облачно с прояснениями+22°C65 %750 мм1.5 м/с48 %
    21:00Облачно с прояснениями+19°C83 %751 мм1.3 м/с10 %
  • 22июля
    Понедельник
    +14°
    +23°
    Пасмурно, дождь
    ВремяПогодаТемператураВлажностьДавлениеВетер, м/сВероятность осадков
    00:00Практически безоблачно+16°C90 %751 мм1.4 м/с2 %
    03:00Небольшая облачность+14°C93 %751 мм1.7 м/с2 %
    06:00Облачно с прояснениями+15°C95 %751 мм1.6 м/с2 %
    09:00Облачно с прояснениями+18°C91 %752 мм1.1 м/с8 %
    12:00Пасмурно, сплошная облачность+20°C76 %752 мм2.7 м/с48 %
    15:00Пасмурно, дождь+22°C72 %752 мм1.8 м/с56 %
    18:00Ясно и безоблачно+23°C68 %752 мм2.0 м/с28 %
    21:00Практически безоблачно+20°C83 %753 мм1.7 м/с17 %
  • 23июля
    Вторник
    +13°
    +25°
    Облачно с прояснениями
    ВремяПогодаТемператураВлажностьДавлениеВетер, м/сВероятность осадков
    00:00Ясно и безоблачно+16°C90 %753 мм1.8 м/с2 %
    03:00Ясно и безоблачно+15°C93 %753 мм1.9 м/с2 %
    06:00Ясно и безоблачно+15°C95 %754 мм1.3 м/с2 %
    09:00Ясно и безоблачно+21°C82 %754 мм1.2 м/с2 %
    12:00Ясно и безоблачно+24°C49 %754 мм3.3 м/с16 %
    15:00Облачно с прояснениями+24°C51 %754 мм3.2 м/с7 %
    18:00Практически безоблачно+24°C56 %753 мм2.3 м/с4 %
    21:00Ясно и безоблачно+19°C77 %753 мм2.1 м/с3 %
  • 24июля
    Среда
    +14°
    +26°
    Облачно с прояснениями
    ВремяПогодаТемператураВлажностьДавлениеВетер, м/сВероятность осадков
    00:00Практически безоблачно+16°C84 %753 мм1.9 м/с2 %
    03:00Ясно и безоблачно+14°C85 %753 мм1.8 м/с2 %
    06:00Ясно и безоблачно+15°C88 %753 мм1.7 м/с2 %
    09:00Ясно и безоблачно+21°C72 %753 мм1.7 м/с2 %
    12:00Практически безоблачно+24°C49 %753 мм2.6 м/с2 %
    15:00Облачно с прояснениями+25°C41 %752 мм2.8 м/с3 %
    18:00Небольшая облачность+25°C46 %752 мм1.9 м/с4 %
    21:00Ясно и безоблачно+21°C63 %752 мм1.0 м/с2 %
  • 25июля
    Четверг
    +15°
    +27°
    Практически безоблачно
    ВремяПогодаТемператураВлажностьДавлениеВетер, м/сВероятность осадков
    00:00Небольшая облачность+18°C73 %752 мм0.2 м/с2 %
    03:00Ясно и безоблачно+15°C86 %752 мм1.7 м/с2 %
    06:00Ясно и безоблачно+16°C83 %752 мм1.4 м/с4 %
    09:00Ясно и безоблачно+22°C68 %751 мм1.8 м/с3 %
    12:00Ясно и безоблачно+25°C47 %751 мм2.4 м/с6 %
    15:00Практически безоблачно+26°C43 %751 мм1.7 м/с11 %
    18:00Облачно с прояснениями+26°C45 %751 мм0.8 м/с7 %
    21:00Практически безоблачно+21°C72 %751 мм1.9 м/с10 %
Мы используем cookies
Соглашаюсь